Portada
METAR-TAF:

METAR-TAF

Aeroports :

Griffiss_Air_Force_Base

Rome, Nova York, Estats Units d'Amèrica

latitud: 43-14N, longitud: 075-24W, altitud: 154 m

Observació

L'informe es va fer fa 27 minuts, a les 09:53 UTC
Vent 3 kt del Nord-Oest
Temperatura -1°C
Humitat 100%
Pressió 1015 hPa
Visibilitat: 16.1 km
Cel cobert a una alçada de 6500 ft

METAR: KRME 200953Z AUTO 31003KT 10SM OVC065 M01/M01 A2997 RMK AO2 SLP153 T10061006

Hora: 05:20 (10:20 UTC)

Pronòstic

L'informe es va fer fa 1 hora i 22 minuts, a les 08:58 UTC
Pronòstic vàlid del 20 a les 09 UTC al 21 a les 06 UTC
Vent 3 kt amb direcció variable
Visibilitat: 10 km
Cel ennuvolat a una alçada de 4000 ft
A partir de les 20 a les 1700 UTC
Vent 6 kt del Nord-Oest
Visibilitat: 10 km
Cel ennuvolat a una alçada de 2500 ft
A partir de les 20 a les 2200 UTC
Vent 4 kt del Oest/Nord-Oest
Visibilitat: 10 km
Cel ennuvolat a una alçada de 4000 ft

TAF: KRME 200858Z 2009/2106 VRB03KT P6SM BKN040 FM201700 31006KT P6SM BKN025 FM202200 30004KT P6SM BKN040

Observacions i pronòstics meteorològics de més de 4000 aeroports (METAR i TAF).

Les estacions disponibles són els punts grocs i vermells al mapa.

Posi el ratolí al punt desitjat per veure el nom de l'estació.

Feu clic per veure les observacions i els pronòstics meteorològics.

Per canviar el mapa: feu clic els botons verds amb una creu de color negre per apropar; al botó verd amb un guió per allunyar la imatge; o en les fletxes verdes per a mapes adjacents.


METAR-TAF: